createdAt,value
2022-12-11T00:01:12.058Z,-1.68
2022-12-11T00:03:42.781Z,-1.70
2022-12-11T00:06:14.056Z,-1.72
2022-12-11T00:08:42.093Z,-1.74
2022-12-11T00:11:13.035Z,-1.75
2022-12-11T00:13:41.782Z,-1.75
2022-12-11T00:16:10.824Z,-1.74
2022-12-11T00:18:39.353Z,-1.74
2022-12-11T00:21:11.370Z,-1.75
2022-12-11T00:23:39.618Z,-1.75
2022-12-11T00:26:10.267Z,-1.73
2022-12-11T00:28:38.574Z,-1.70
2022-12-11T00:31:08.772Z,-1.69
2022-12-11T00:33:37.220Z,-1.71
2022-12-11T00:36:11.650Z,-1.71
2022-12-11T00:38:39.934Z,-1.72
2022-12-11T00:41:08.238Z,-1.73
2022-12-11T00:43:36.473Z,-1.75
2022-12-11T00:46:04.754Z,-1.77
2022-12-11T00:48:33.135Z,-1.78
2022-12-11T00:51:01.263Z,-1.80
2022-12-11T00:53:29.658Z,-1.79
2022-12-11T00:55:57.957Z,-1.77
2022-12-11T00:58:26.174Z,-1.76
2022-12-11T01:00:54.667Z,-1.76
2022-12-11T01:03:22.967Z,-1.77
2022-12-11T01:05:53.193Z,-1.78
2022-12-11T01:08:22.017Z,-1.81
2022-12-11T01:10:51.159Z,-1.82
2022-12-11T01:13:19.312Z,-1.83
2022-12-11T01:15:47.527Z,-1.83
2022-12-11T01:18:16.044Z,-1.84
2022-12-11T01:20:44.159Z,-1.85
2022-12-11T01:23:13.493Z,-1.87
2022-12-11T01:25:42.527Z,-1.88
2022-12-11T01:28:10.963Z,-1.90
2022-12-11T01:30:42.081Z,-1.90
2022-12-11T01:33:10.921Z,-1.89
2022-12-11T01:35:40.415Z,-1.89
2022-12-11T01:38:10.494Z,-1.92
2022-12-11T01:40:38.719Z,-1.95
2022-12-11T01:43:11.660Z,-1.95
2022-12-11T01:45:44.743Z,-1.95
2022-12-11T01:48:19.233Z,-1.94
2022-12-11T01:50:49.826Z,-1.95
2022-12-11T01:53:32.548Z,-1.95
2022-12-11T01:56:01.231Z,-1.96
2022-12-11T01:58:43.987Z,-1.96
2022-12-11T02:05:40.530Z,-1.95
2022-12-11T02:08:10.857Z,-1.99
2022-12-11T02:10:54.355Z,-2.01
2022-12-11T02:13:33.400Z,-2.03
2022-12-11T02:16:19.485Z,-2.06
2022-12-11T02:19:06.874Z,-2.05
2022-12-11T02:21:41.327Z,-2.05
2022-12-11T02:24:18.685Z,-2.03
2022-12-11T02:27:31.805Z,-2.03
2022-12-11T02:30:07.108Z,-2.02
2022-12-11T02:32:59.098Z,-2.03
2022-12-11T02:35:41.281Z,-2.05
2022-12-11T02:38:24.108Z,-2.10
2022-12-11T02:40:55.579Z,-2.12
2022-12-11T02:43:25.527Z,-2.13
2022-12-11T02:45:54.475Z,-2.14
2022-12-11T02:48:24.385Z,-2.15
2022-12-11T02:50:58.217Z,-2.16
2022-12-11T02:53:29.353Z,-2.17
2022-12-11T02:56:13.147Z,-2.19
2022-12-11T02:58:49.934Z,-2.20
2022-12-11T03:01:19.957Z,-2.22
2022-12-11T03:03:48.356Z,-2.23
2022-12-11T03:06:21.529Z,-2.24
2022-12-11T03:08:51.953Z,-2.24
2022-12-11T03:11:20.034Z,-2.24
2022-12-11T03:13:48.300Z,-2.25
2022-12-11T03:16:30.560Z,-2.26
2022-12-11T03:19:12.775Z,-2.28
2022-12-11T03:21:48.878Z,-2.30
2022-12-11T03:24:30.364Z,-2.28
2022-12-11T03:27:06.794Z,-2.28
2022-12-11T03:29:41.238Z,-2.29
2022-12-11T03:32:23.114Z,-2.31
2022-12-11T03:34:58.552Z,-2.34
2022-12-11T03:37:31.256Z,-2.34
2022-12-11T03:40:06.701Z,-2.35
2022-12-11T03:42:36.769Z,-2.36
2022-12-11T03:45:06.651Z,-2.36
2022-12-11T03:47:35.398Z,-2.35
2022-12-11T03:50:07.488Z,-2.35
2022-12-11T03:52:44.006Z,-2.35
2022-12-11T03:55:16.947Z,-2.36
2022-12-11T03:57:45.513Z,-2.37
2022-12-11T04:00:16.797Z,-2.38
2022-12-11T04:03:09.695Z,-2.40
2022-12-11T04:05:49.583Z,-2.42
2022-12-11T04:08:20.739Z,-2.43
2022-12-11T04:11:09.515Z,-2.41
2022-12-11T04:13:38.574Z,-2.42
2022-12-11T04:16:07.479Z,-2.41
2022-12-11T04:18:54.438Z,-2.41
2022-12-11T04:21:41.132Z,-2.40
2022-12-11T04:24:15.460Z,-2.40
2022-12-11T04:26:47.511Z,-2.42
2022-12-11T04:29:15.618Z,-2.44
2022-12-11T04:31:43.683Z,-2.47
2022-12-11T04:34:12.098Z,-2.50
2022-12-11T04:36:40.165Z,-2.49
2022-12-11T04:39:08.211Z,-2.51
2022-12-11T04:41:37.238Z,-2.51
2022-12-11T04:44:05.831Z,-2.50
2022-12-11T04:46:34.489Z,-2.50
2022-12-11T04:49:02.748Z,-2.53
2022-12-11T04:51:30.869Z,-2.54
2022-12-11T04:53:59.616Z,-2.57
2022-12-11T04:56:27.981Z,-2.59
2022-12-11T04:58:56.062Z,-2.59
2022-12-11T05:01:24.255Z,-2.59
2022-12-11T05:03:52.422Z,-2.60
2022-12-11T05:06:20.479Z,-2.60
2022-12-11T05:08:48.571Z,-2.60
2022-12-11T05:11:17.549Z,-2.60
2022-12-11T05:13:45.986Z,-2.60
2022-12-11T05:16:16.322Z,-2.61
2022-12-11T05:18:44.600Z,-2.61
2022-12-11T05:21:14.296Z,-2.61
2022-12-11T05:23:42.811Z,-2.64
2022-12-11T05:26:17.284Z,-2.68
2022-12-11T05:28:46.474Z,-2.72
2022-12-11T05:31:18.226Z,-2.74
2022-12-11T05:33:47.507Z,-2.77
2022-12-11T05:36:27.657Z,-2.76
2022-12-11T05:38:56.168Z,-2.76
2022-12-11T05:41:26.222Z,-2.75
2022-12-11T05:43:54.292Z,-2.76
2022-12-11T05:46:27.791Z,-2.76
2022-12-11T05:49:01.062Z,-2.75
2022-12-11T05:51:30.472Z,-2.76
2022-12-11T05:53:58.702Z,-2.76
2022-12-11T05:56:29.838Z,-2.76
2022-12-11T05:58:58.394Z,-2.75
2022-12-11T06:01:32.255Z,-2.77
2022-12-11T06:04:01.179Z,-2.80
2022-12-11T06:06:29.438Z,-2.83
2022-12-11T06:08:59.034Z,-2.86
2022-12-11T06:11:29.289Z,-2.86
2022-12-11T06:13:57.748Z,-2.88
2022-12-11T06:16:25.897Z,-2.89
2022-12-11T06:18:58.010Z,-2.87
2022-12-11T06:21:30.039Z,-2.86
2022-12-11T06:24:00.768Z,-2.84
2022-12-11T06:26:29.805Z,-2.82
2022-12-11T06:28:57.916Z,-2.83
2022-12-11T06:31:26.494Z,-2.84
2022-12-11T06:33:54.726Z,-2.85
2022-12-11T06:36:24.532Z,-2.86
2022-12-11T06:38:53.069Z,-2.89
2022-12-11T06:41:21.349Z,-2.92
2022-12-11T06:43:50.748Z,-2.95
2022-12-11T06:46:20.184Z,-2.96
2022-12-11T06:48:49.463Z,-2.96
2022-12-11T06:51:20.004Z,-2.98
2022-12-11T06:53:56.522Z,-2.99
2022-12-11T06:56:24.929Z,-3.00
2022-12-11T06:58:53.153Z,-2.98
2022-12-11T07:01:24.620Z,-2.98
2022-12-11T07:04:00.030Z,-2.99
2022-12-11T07:06:30.095Z,-3.01
2022-12-11T07:08:58.291Z,-3.01
2022-12-11T07:11:26.383Z,-3.01
2022-12-11T07:13:54.638Z,-3.01
2022-12-11T07:16:23.245Z,-3.00
2022-12-11T07:18:52.067Z,-2.98
2022-12-11T07:21:21.164Z,-2.96
2022-12-11T07:23:50.223Z,-2.95
2022-12-11T07:26:21.022Z,-2.92
2022-12-11T07:28:49.483Z,-2.94
2022-12-11T07:31:25.029Z,-2.94
2022-12-11T07:33:58.573Z,-2.93
2022-12-11T07:36:28.014Z,-2.92
2022-12-11T07:38:56.733Z,-2.91
2022-12-11T07:41:25.145Z,-2.88
2022-12-11T07:43:57.291Z,-2.87
2022-12-11T07:46:28.243Z,-2.84
2022-12-11T07:48:56.425Z,-2.86
2022-12-11T07:51:28.120Z,-2.89
2022-12-11T07:54:01.591Z,-2.91
2022-12-11T07:56:30.736Z,-2.93
2022-12-11T07:59:04.967Z,-2.96
2022-12-11T08:01:36.556Z,-2.94
2022-12-11T08:04:07.360Z,-2.91
2022-12-11T08:06:37.806Z,-2.87
2022-12-11T08:09:09.695Z,-2.82
2022-12-11T08:11:38.419Z,-2.80
2022-12-11T08:14:07.977Z,-2.78
2022-12-11T08:16:36.661Z,-2.78
2022-12-11T08:19:04.776Z,-2.78
2022-12-11T08:21:32.849Z,-2.77
2022-12-11T08:24:00.968Z,-2.75
2022-12-11T08:26:31.695Z,-2.74
2022-12-11T08:29:02.200Z,-2.72
2022-12-11T08:31:30.844Z,-2.68
2022-12-11T08:33:59.071Z,-2.63
2022-12-11T08:36:27.613Z,-2.59
2022-12-11T08:38:56.979Z,-2.59
2022-12-11T08:41:30.326Z,-2.60
2022-12-11T08:44:00.392Z,-2.60
2022-12-11T08:46:31.452Z,-2.58
2022-12-11T08:49:00.138Z,-2.57
2022-12-11T08:51:29.746Z,-2.57
2022-12-11T08:54:01.223Z,-2.57
2022-12-11T08:56:30.202Z,-2.58
2022-12-11T08:59:01.892Z,-2.55
2022-12-11T09:01:30.589Z,-2.49
2022-12-11T09:03:59.306Z,-2.47
2022-12-11T09:06:30.025Z,-2.45
2022-12-11T09:09:00.961Z,-2.41
2022-12-11T09:11:32.907Z,-2.36
2022-12-11T09:14:07.181Z,-2.34
2022-12-11T09:16:40.214Z,-2.36
2022-12-11T09:19:13.918Z,-2.36
2022-12-11T09:21:43.720Z,-2.36
2022-12-11T09:24:13.792Z,-2.35
2022-12-11T09:26:42.332Z,-2.34
2022-12-11T09:29:11.880Z,-2.34
2022-12-11T09:31:41.004Z,-2.36
2022-12-11T09:34:12.370Z,-2.42
2022-12-11T09:36:41.736Z,-2.47
2022-12-11T09:39:11.899Z,-2.51
2022-12-11T09:41:58.287Z,-2.53
2022-12-11T09:44:41.581Z,-2.51
2022-12-11T09:47:57.371Z,-2.49
2022-12-11T09:50:29.272Z,-2.46
2022-12-11T09:53:20.806Z,-2.45
2022-12-11T09:56:07.176Z,-2.46
2022-12-11T09:59:01.807Z,-2.49
2022-12-11T10:01:36.106Z,-2.50
2022-12-11T10:04:36.917Z,-2.47
2022-12-11T10:07:20.790Z,-2.45
2022-12-11T10:10:17.082Z,-2.45
2022-12-11T10:12:58.651Z,-2.42
2022-12-11T10:15:37.731Z,-2.41
2022-12-11T10:18:12.774Z,-2.37
2022-12-11T10:20:42.891Z,-2.32
2022-12-11T10:23:21.199Z,-2.28
2022-12-11T10:25:58.721Z,-2.27
2022-12-11T10:28:28.120Z,-2.26
2022-12-11T10:31:11.669Z,-2.23
2022-12-11T10:34:18.238Z,-2.22
2022-12-11T10:36:46.525Z,-2.19
2022-12-11T10:39:20.843Z,-2.13
2022-12-11T10:41:54.825Z,-2.09
2022-12-11T10:44:29.402Z,-2.08
2022-12-11T10:47:19.127Z,-2.09
2022-12-11T10:50:02.145Z,-2.09
2022-12-11T10:52:45.095Z,-2.08
2022-12-11T10:55:27.463Z,-2.09
2022-12-11T10:58:01.911Z,-2.10
2022-12-11T11:00:39.721Z,-2.05
2022-12-11T11:03:25.833Z,-2.00
2022-12-11T11:06:18.342Z,-1.96
2022-12-11T11:08:51.993Z,-1.96
2022-12-11T11:11:36.765Z,-1.95
2022-12-11T11:14:10.993Z,-1.93
2022-12-11T11:16:41.620Z,-1.93
2022-12-11T11:19:17.926Z,-1.91
2022-12-11T11:21:53.595Z,-1.86
2022-12-11T11:24:27.794Z,-1.82
2022-12-11T11:27:13.343Z,-1.82
2022-12-11T11:29:43.324Z,-1.86
2022-12-11T11:32:20.550Z,-1.88
2022-12-11T11:34:48.730Z,-1.93
2022-12-11T11:37:27.389Z,-1.99
2022-12-11T11:40:03.415Z,-2.01
2022-12-11T11:42:51.443Z,-1.98
2022-12-11T11:45:33.470Z,-1.97
2022-12-11T11:48:24.685Z,-1.96
2022-12-11T11:50:54.229Z,-1.91
2022-12-11T11:53:37.405Z,-1.90
2022-12-11T11:56:18.514Z,-1.94
2022-12-11T11:58:46.892Z,-2.01
2022-12-11T12:01:17.881Z,-2.06
2022-12-11T12:03:48.112Z,-2.09
2022-12-11T12:06:28.347Z,-2.11
2022-12-11T12:09:09.245Z,-2.10
2022-12-11T12:12:08.882Z,-2.11
2022-12-11T12:14:52.888Z,-2.09
2022-12-11T12:17:38.600Z,-2.05
2022-12-11T12:20:10.685Z,-2.05
2022-12-11T12:22:53.794Z,-2.06
2022-12-11T12:25:49.206Z,-2.10
2022-12-11T12:28:41.879Z,-2.12
2022-12-11T12:31:44.274Z,-2.15
2022-12-11T12:34:35.649Z,-2.23
2022-12-11T12:37:38.134Z,-2.34
2022-12-11T12:40:28.959Z,-2.40
2022-12-11T12:42:57.158Z,-2.45
2022-12-11T12:45:30.600Z,-2.47
2022-12-11T12:47:58.903Z,-2.49
2022-12-11T12:50:34.924Z,-2.48
2022-12-11T12:53:06.483Z,-2.50
2022-12-11T12:55:35.885Z,-2.53
2022-12-11T12:58:06.511Z,-2.53
2022-12-11T13:00:40.313Z,-2.51
2022-12-11T13:03:14.974Z,-2.47
2022-12-11T13:05:55.031Z,-2.37
2022-12-11T13:08:43.755Z,-2.30
2022-12-11T13:11:14.105Z,-2.25
2022-12-11T13:13:51.608Z,-2.20
2022-12-11T13:16:38.064Z,-2.19
2022-12-11T13:19:27.814Z,-2.26
2022-12-11T13:21:58.005Z,-2.32
2022-12-11T13:24:28.480Z,-2.37
2022-12-11T13:26:56.890Z,-2.46
2022-12-11T13:29:42.699Z,-2.49
2022-12-11T13:32:11.086Z,-2.51
2022-12-11T13:34:42.856Z,-2.58
2022-12-11T13:37:41.821Z,-2.66
2022-12-11T13:40:24.406Z,-2.72
2022-12-11T13:42:59.194Z,-2.74
2022-12-11T13:45:30.610Z,-2.79
2022-12-11T13:47:59.701Z,-2.82
2022-12-11T13:50:35.197Z,-2.82
2022-12-11T13:53:05.000Z,-2.83
2022-12-11T13:55:34.926Z,-2.83
2022-12-11T13:58:05.563Z,-2.85
2022-12-11T14:00:34.052Z,-2.90
2022-12-11T14:03:07.641Z,-2.92
2022-12-11T14:05:36.615Z,-2.92
2022-12-11T14:08:12.058Z,-2.95
2022-12-11T14:10:40.527Z,-3.00
2022-12-11T14:13:24.068Z,-3.03
2022-12-11T14:15:53.598Z,-3.08
2022-12-11T14:18:24.823Z,-3.14
2022-12-11T14:21:02.150Z,-3.16
2022-12-11T14:23:33.545Z,-3.15
2022-12-11T14:26:17.833Z,-3.11
2022-12-11T14:28:46.085Z,-3.11
2022-12-11T14:31:17.583Z,-3.12
2022-12-11T14:33:52.012Z,-3.14
2022-12-11T14:36:21.079Z,-3.16
2022-12-11T14:39:18.937Z,-3.18
2022-12-11T14:41:47.590Z,-3.21
2022-12-11T14:44:19.183Z,-3.22
2022-12-11T14:46:57.094Z,-3.24
2022-12-11T14:49:34.947Z,-3.27
2022-12-11T14:52:05.477Z,-3.29
2022-12-11T14:54:42.356Z,-3.36
2022-12-11T14:57:25.832Z,-3.43
2022-12-11T14:59:56.561Z,-3.50
2022-12-11T15:02:31.161Z,-3.52
2022-12-11T15:05:19.103Z,-3.55
2022-12-11T15:08:03.962Z,-3.62
2022-12-11T15:10:37.206Z,-3.64
2022-12-11T15:13:06.630Z,-3.64
2022-12-11T15:15:47.626Z,-3.63
2022-12-11T15:18:38.581Z,-3.63
2022-12-11T15:21:10.055Z,-3.63
2022-12-11T15:23:53.509Z,-3.61
2022-12-11T15:26:39.736Z,-3.61
2022-12-11T15:29:25.686Z,-3.61
2022-12-11T15:32:02.947Z,-3.62
2022-12-11T15:34:43.015Z,-3.65
2022-12-11T15:37:18.487Z,-3.65
2022-12-11T15:39:46.774Z,-3.62
2022-12-11T15:42:25.061Z,-3.59
2022-12-11T15:44:55.857Z,-3.56
2022-12-11T15:47:27.006Z,-3.54
2022-12-11T15:50:02.344Z,-3.54
2022-12-11T15:52:31.395Z,-3.62
2022-12-11T15:54:59.453Z,-3.67
2022-12-11T15:57:27.716Z,-3.69
2022-12-11T15:59:58.708Z,-3.69
2022-12-11T16:02:28.081Z,-3.69
2022-12-11T16:04:57.522Z,-3.65
2022-12-11T16:07:26.864Z,-3.63
2022-12-11T16:09:55.068Z,-3.68
2022-12-11T16:12:23.348Z,-3.74
2022-12-11T16:14:51.546Z,-3.78
2022-12-11T16:17:20.088Z,-3.81
2022-12-11T16:19:48.240Z,-3.81
2022-12-11T16:22:16.631Z,-3.80
2022-12-11T16:24:44.740Z,-3.76
2022-12-11T16:27:13.102Z,-3.76
2022-12-11T16:29:42.003Z,-3.76
2022-12-11T16:32:10.551Z,-3.77
2022-12-11T16:34:38.916Z,-3.81
2022-12-11T16:37:09.149Z,-3.81
2022-12-11T16:39:38.725Z,-3.82
2022-12-11T16:42:07.137Z,-3.82
2022-12-11T16:44:39.530Z,-3.85
2022-12-11T16:47:10.886Z,-3.84
2022-12-11T16:49:39.530Z,-3.81
2022-12-11T16:52:09.309Z,-3.80
2022-12-11T16:54:37.860Z,-3.77
2022-12-11T16:57:06.198Z,-3.74
2022-12-11T16:59:37.437Z,-3.71
2022-12-11T17:02:06.638Z,-3.68
2022-12-11T17:04:34.896Z,-3.73
2022-12-11T17:07:03.562Z,-3.74
2022-12-11T17:09:32.536Z,-3.71
2022-12-11T17:12:02.126Z,-3.67
2022-12-11T17:14:30.284Z,-3.65
2022-12-11T17:16:58.573Z,-3.63
2022-12-11T17:19:27.191Z,-3.61
2022-12-11T17:21:56.138Z,-3.62
2022-12-11T17:24:24.393Z,-3.65
2022-12-11T17:26:53.251Z,-3.67
2022-12-11T17:29:22.093Z,-3.73
2022-12-11T17:31:50.354Z,-3.76
2022-12-11T17:34:18.693Z,-3.81
2022-12-11T17:36:46.819Z,-3.82
2022-12-11T17:39:15.117Z,-3.80
2022-12-11T17:41:43.512Z,-3.78
2022-12-11T17:44:13.188Z,-3.76
2022-12-11T17:46:41.668Z,-3.78
2022-12-11T17:49:10.194Z,-3.80
2022-12-11T17:51:38.287Z,-3.84
2022-12-11T17:54:06.554Z,-3.84
2022-12-11T17:56:36.238Z,-3.85
2022-12-11T17:59:04.981Z,-3.85
2022-12-11T18:01:33.397Z,-3.88
2022-12-11T18:04:02.420Z,-3.90
2022-12-11T18:06:31.579Z,-3.89
2022-12-11T18:09:00.173Z,-3.87
2022-12-11T18:11:28.575Z,-3.86
2022-12-11T18:13:56.914Z,-3.86
2022-12-11T18:16:32.422Z,-3.85
2022-12-11T18:19:01.297Z,-3.85
2022-12-11T18:21:32.978Z,-3.86
2022-12-11T18:24:02.092Z,-3.86
2022-12-11T18:26:30.229Z,-3.87
2022-12-11T18:28:58.457Z,-3.86
2022-12-11T18:31:26.616Z,-3.84
2022-12-11T18:33:55.212Z,-3.85
2022-12-11T18:36:23.466Z,-3.85
2022-12-11T18:38:51.584Z,-3.84
2022-12-11T18:41:20.327Z,-3.87
2022-12-11T18:43:52.222Z,-3.89
2022-12-11T18:46:21.647Z,-3.91
2022-12-11T18:48:50.600Z,-3.93
2022-12-11T18:51:24.879Z,-3.94
2022-12-11T18:53:53.770Z,-3.99
2022-12-11T18:56:23.346Z,-4.02
2022-12-11T18:58:52.320Z,-4.05
2022-12-11T19:01:24.151Z,-4.07
2022-12-11T19:04:03.267Z,-4.05
2022-12-11T19:06:35.573Z,-4.05
2022-12-11T19:09:06.394Z,-4.09
2022-12-11T19:11:36.200Z,-4.10
2022-12-11T19:14:06.062Z,-4.09
2022-12-11T19:16:38.926Z,-4.09
2022-12-11T19:19:11.696Z,-4.09
2022-12-11T19:21:41.132Z,-4.11
2022-12-11T19:24:15.001Z,-4.15
2022-12-11T19:26:43.879Z,-4.19
2022-12-11T19:29:26.815Z,-4.22
2022-12-11T19:31:55.999Z,-4.22
2022-12-11T19:34:25.162Z,-4.19
2022-12-11T19:36:53.790Z,-4.18
2022-12-11T19:39:24.376Z,-4.17
2022-12-11T19:41:52.531Z,-4.18
2022-12-11T19:44:21.032Z,-4.21
2022-12-11T19:46:49.424Z,-4.25
2022-12-11T19:49:18.395Z,-4.27
2022-12-11T19:51:46.693Z,-4.27
2022-12-11T19:54:17.009Z,-4.28
2022-12-11T19:56:45.473Z,-4.27
2022-12-11T19:59:16.769Z,-4.29
2022-12-11T20:01:48.210Z,-4.28
2022-12-11T20:04:18.187Z,-4.28
2022-12-11T20:06:47.199Z,-4.27
2022-12-11T20:09:16.050Z,-4.24
2022-12-11T20:11:45.527Z,-4.24
2022-12-11T20:14:23.069Z,-4.22
2022-12-11T20:17:10.505Z,-4.24
2022-12-11T20:19:41.276Z,-4.26
2022-12-11T20:22:09.626Z,-4.26
2022-12-11T20:24:37.940Z,-4.25
2022-12-11T20:27:06.304Z,-4.25
2022-12-11T20:29:34.502Z,-4.24
2022-12-11T20:32:02.778Z,-4.22
2022-12-11T20:34:31.502Z,-4.22
2022-12-11T20:37:00.458Z,-4.18
2022-12-11T20:39:29.277Z,-4.14
2022-12-11T20:41:57.619Z,-4.13
2022-12-11T20:44:25.929Z,-4.10
2022-12-11T20:46:54.324Z,-4.09
2022-12-11T20:49:22.744Z,-4.13
2022-12-11T20:51:51.992Z,-4.13
2022-12-11T20:54:20.116Z,-4.10
2022-12-11T20:56:48.638Z,-4.09
2022-12-11T20:59:17.697Z,-4.07
2022-12-11T21:01:45.849Z,-4.10
2022-12-11T21:04:14.264Z,-4.13
2022-12-11T21:06:42.980Z,-4.12
2022-12-11T21:09:19.442Z,-4.09
2022-12-11T21:11:48.434Z,-4.06
2022-12-11T21:14:17.933Z,-4.05
2022-12-11T21:16:46.751Z,-4.03
2022-12-11T21:19:22.395Z,-3.97
2022-12-11T21:21:50.967Z,-3.97
2022-12-11T21:24:23.295Z,-3.99
2022-12-11T21:26:51.406Z,-4.00
2022-12-11T21:29:19.688Z,-4.02
2022-12-11T21:31:48.315Z,-4.03
2022-12-11T21:34:20.654Z,-4.02
2022-12-11T21:36:56.527Z,-4.04
2022-12-11T21:39:26.377Z,-4.06
2022-12-11T21:41:54.716Z,-4.08
2022-12-11T21:47:11.231Z,-4.06
2022-12-11T21:49:39.470Z,-4.06
2022-12-11T21:52:08.711Z,-4.03
2022-12-11T21:54:37.011Z,-4.02
2022-12-11T21:57:05.247Z,-4.01
2022-12-11T21:59:33.389Z,-4.04
2022-12-11T22:02:01.819Z,-4.05
2022-12-11T22:04:30.151Z,-4.08
2022-12-11T22:06:58.279Z,-4.10
2022-12-11T22:09:26.621Z,-4.11
2022-12-11T22:11:58.435Z,-4.14
2022-12-11T22:14:27.277Z,-4.15
2022-12-11T22:16:55.692Z,-4.18
2022-12-11T22:19:29.081Z,-4.18
2022-12-11T22:22:00.734Z,-4.18
2022-12-11T22:24:28.845Z,-4.16
2022-12-11T22:26:57.157Z,-4.14
2022-12-11T22:29:25.529Z,-4.15
2022-12-11T22:31:54.571Z,-4.20
2022-12-11T22:34:23.142Z,-4.24
2022-12-11T22:36:51.734Z,-4.28
2022-12-11T22:39:20.060Z,-4.28
2022-12-11T22:41:48.367Z,-4.27
2022-12-11T22:44:20.150Z,-4.24
2022-12-11T22:46:50.499Z,-4.24
2022-12-11T22:49:20.487Z,-4.19
2022-12-11T22:51:49.183Z,-4.17
2022-12-11T22:54:17.386Z,-4.17
2022-12-11T22:56:46.310Z,-4.19
2022-12-11T22:59:14.778Z,-4.22
2022-12-11T23:01:42.951Z,-4.22
2022-12-11T23:04:11.931Z,-4.23
2022-12-11T23:06:40.040Z,-4.22
2022-12-11T23:09:08.157Z,-4.19
2022-12-11T23:11:38.435Z,-4.19
2022-12-11T23:14:09.031Z,-4.21
2022-12-11T23:16:37.491Z,-4.20
2022-12-11T23:19:06.045Z,-4.19
2022-12-11T23:21:34.486Z,-4.15
2022-12-11T23:24:03.915Z,-4.12
2022-12-11T23:26:33.019Z,-4.12
2022-12-11T23:29:02.121Z,-4.11
2022-12-11T23:31:31.292Z,-4.10
2022-12-11T23:33:59.771Z,-4.10
2022-12-11T23:36:28.673Z,-4.12
2022-12-11T23:38:57.178Z,-4.15
2022-12-11T23:41:25.595Z,-4.17
2022-12-11T23:43:53.756Z,-4.17
2022-12-11T23:46:24.518Z,-4.18
2022-12-11T23:48:53.879Z,-4.16
2022-12-11T23:51:24.391Z,-4.14
2022-12-11T23:53:53.174Z,-4.13
2022-12-11T23:56:27.790Z,-4.11
2022-12-11T23:58:57.283Z,-4.06
